x

South Nomad (46036) Wave Buoy

7:00pm - Tue 30th Jun 2015 All times are UTC.

  • Sig Wave height 3.0ft
  • Peak Period 14s
  • Wind
    7mph, 9mph gusts
  • Sea Temp 61°f
  • Air Temp 59°f
  • Sea Pressure 1030mb

More Historic Weather Station data

Upgrade to MSW Pro to gain access to the past 30 days of data for over 8000 Wavebouys and Weather Stations around the globe.

Join Pro

Comparision Forecast

View Surf forecast
   
Tue 06/30 7:00pm 3ft 14s 7 9 mph 1030mb 61f 59f
6:00pm 3ft 14s 7 9 mph 1029.6mb 61f 59f
5:00pm 3.5ft 15s 4 7 mph 1029.2mb 61f 59f
4:00pm 3.5ft 15s 7 9 mph 1028.9mb 61f 59f
3:00pm 3.5ft 14s 7 11 mph 1028.5mb 61f 59f
2:00pm 3ft 14s 9 11 mph 1028.2mb 61f 59f
1:00pm 3.5ft 15s 11 13 mph 1027.8mb 61f 58f
12:00pm 3.5ft 15s 11 13 mph 1027.4mb 61f 58f
11:00am 3.5ft 15s 11 13 mph 1027.1mb 61f 58f
10:00am 3.5ft 14s 11 13 mph 1026.8mb 61f 58f
9:00am 3.5ft 15s 11 13 mph 1026.8mb 61f 58f
8:00am 3.5ft 15s 11 13 mph 1026.6mb 61f 58f
7:00am 3.5ft 12s 13 16 mph 1026mb 60f 58f
6:00am 3.5ft 15s 11
mph
1025.6mb 60f 58f
5:00am 3.5ft 15s 11 13 mph 1025.1mb 61f 58f
4:00am 3.5ft 16s 16 18 mph 1024.5mb 61f 58f
3:00am 3.5ft 15s 11 13 mph 1024.6mb 61f 58f
2:00am 3.5ft 15s 13
mph
1024.4mb 61f 58f
1:00am 3.5ft 16s 13 16 mph 1024.4mb 61f 58f
12:00am 3.5ft 16s 11 13 mph 1024.4mb 61f 59f
Mon 06/29 11:00pm 3.5ft 14s 13 16 mph 1023.5mb 61f 59f
10:00pm 3.5ft 16s 13 16 mph 1023.4mb 61f 58f
9:00pm 3.5ft 16s 11 13 mph 1023.2mb 61f 59f
8:00pm 3.5ft 16s 13 16 mph 1022.7mb 61f 58f
7:00pm 3.5ft 16s 13 16 mph 1022.2mb 61f 58f
6:00pm 3.5ft 13s 13 16 mph 1021.8mb 61f 58f
4:00pm 3.5ft 15s 13 16 mph 1021mb 60f 59f
3:00pm 4ft 8s 13 16 mph 1020.6mb 60f 58f
2:00pm 4ft 16s 13 18 mph 1020.1mb 60f 58f
1:00pm 4.5ft 7s 13 16 mph 1019.6mb 60f 58f
12:00pm 4.5ft 8s 16 20 mph 1019.5mb 60f 58f
11:00am 4ft 16s 18 20 mph 1019.2mb 60f 58f
10:00am 3.5ft 16s 18 20 mph 1018.8mb 60f 58f
9:00am 3.5ft 14s 16 20 mph 1018.6mb 60f 58f
8:00am 3.5ft 13s 18 20 mph 1018.5mb 60f 57f
7:00am 3ft 8s 13 18 mph 1018.2mb 61f 58f
6:00am 3.5ft 9s 4
mph
1018.4mb 60f 59f
5:00am 3ft 9s 2
mph
1018.1mb 60f 59f
4:00am 3.5ft 8s  -  2 mph 1017.7mb 60f 60f
3:00am 3ft 9s 2 4 mph 1017.1mb 60f 59f
2:00am 3.5ft 9s 4 7 mph 1017.5mb 60f 60f
1:00am 3.5ft 9s 7 9 mph 1017.8mb 60f 60f
12:00am 3.5ft 9s 7 9 mph 1017.9mb 60f 60f
Sun 06/28 11:00pm 3.5ft 14s 9
mph
1017.8mb 60f 60f
10:00pm 3.5ft 9s 9 11 mph 1018mb 60f 60f
9:00pm 3.5ft 14s 9 11 mph 1018mb 60f 60f
8:00pm 3.5ft 14s 9 11 mph 1018.1mb 60f 60f
7:00pm 3.5ft 14s 9 11 mph 1018.1mb 60f 60f
6:00pm 3.5ft 8s 11 13 mph 1018.2mb 60f 59f
5:00pm 3.5ft 8s 11 13 mph 1018mb 60f 59f
4:00pm 3.5ft 8s 11 13 mph 1018mb 60f 59f
3:00pm 3.5ft 8s 11 13 mph 1018.1mb 60f 59f
2:00pm 3.5ft 9s 11 13 mph 1018.2mb 60f 59f
1:00pm 3.5ft 10s 11 13 mph 1018.1mb 60f 59f
12:00pm 3.5ft 8s 9 11 mph 1017.8mb 60f 59f
11:00am 3.5ft 9s 9 11 mph 1017.9mb 60f 59f
10:00am 3.5ft 10s 9 11 mph 1018.2mb 60f 59f
9:00am 3ft 9s 9
mph
1018.3mb 60f 59f
8:00am 3.5ft 10s 9
mph
1018.5mb 60f 59f
7:00am 3.5ft 10s 9 11 mph 1018.6mb 60f 59f
6:00am 3.5ft 9s 9 11 mph 1018.9mb 60f 59f
5:00am 3.5ft 9s 11 13 mph 1018.7mb 60f 60f
4:00am 4ft 7s 7 9 mph 1018.7mb 60f 60f
3:00am 4.5ft 8s 7 9 mph 1019mb 60f 60f
2:00am 4.5ft 8s 9
mph
1019.3mb 60f 60f
1:00am 5ft 8s 9 11 mph 1019.6mb 60f 60f
12:00am 4.5ft 8s 9 11 mph 1019.8mb 60f 60f
Sat 06/27 11:00pm 4.5ft 8s 9 11 mph 1020mb 60f 60f
10:00pm 5ft 10s 11
mph
1020mb 60f 60f
9:00pm 4.5ft 10s 9 11 mph 1020mb 60f 60f
8:00pm 4.5ft 10s 9
mph
1020mb 60f 60f
7:00pm 4.5ft 10s 7 9 mph 1019.9mb 60f 60f
6:00pm 4.5ft 10s 7
mph
1019.6mb 59f 60f
5:00pm 4.5ft 11s 4 7 mph 1019.5mb 59f 59f
4:00pm 4.5ft 9s 7 9 mph 1019.6mb 59f 59f
3:00pm 5ft 10s 7 9 mph 1019.5mb 59f 59f
2:00pm 5ft 8s 9
mph
1019.5mb 59f 59f
1:00pm 5ft 8s 9
mph
1019.3mb 59f 59f
12:00pm 5.5ft 8s 9 11 mph 1019.5mb 59f 59f
11:00am 5.5ft 9s 13 16 mph 1019.5mb 59f 59f
10:00am 5ft 8s 13 18 mph 1019.7mb 59f 59f
9:00am 5ft 8s 16 18 mph 1019.9mb 59f 59f
8:00am 4.5ft 8s 18 20 mph 1020.1mb 60f 59f
7:00am 4.5ft 8s 18 22 mph 1020.5mb 60f 59f
6:00am 4.5ft 8s 16 18 mph 1020.5mb 59f 60f
5:00am 4.5ft 8s 13 16 mph 1020.6mb 59f 60f
4:00am 4.5ft 9s 13 16 mph 1020.7mb 59f 60f
3:00am 4.5ft 9s 9 11 mph 1021.2mb 59f 59f
2:00am 4ft 10s 11 13 mph 1021.8mb 59f 60f
1:00am 4.5ft 8s 13 16 mph 1022.1mb 59f 60f
12:00am 4.5ft 8s 13
mph
1022.3mb 59f 60f
Fri 06/26 11:00pm 4.5ft 9s 11 13 mph 1022.6mb 59f 60f
10:00pm 4.5ft 8s 11
mph
1023.1mb 59f 59f
9:00pm 4.5ft 8s 9 11 mph 1023.6mb 59f 59f